Time;durP1;ratioP1;P1;durP2;ratioP2;P2;SDS_P1;SDS_P2;PMS_P1;PMS_P2;Temp;Humidity;BMP_temperature;BMP_pressure;BME280_temperature;BME280_humidity;BME280_pressure;Samples;Min_cycle;Max_cycle;Signal;HPM_P1;HPM_P2
2023/03/18 00:00:47;;;;;;;8.35;3.67;;;27.60;99.90;;;;;;5104340;28;20202;-76
2023/03/18 00:03:18;;;;;;;9.80;4.47;;;27.70;99.90;;;;;;5104941;28;20669;-76
2023/03/18 00:05:50;;;;;;;12.85;4.25;;;27.70;99.90;;;;;;5103217;28;20254;-76
2023/03/18 00:08:21;;;;;;;8.30;3.95;;;27.80;99.90;;;;;;5104432;28;20203;-76
2023/03/18 00:10:56;;;;;;;11.60;5.25;;;27.70;99.90;;;;;;5106261;28;20190;-77
2023/03/18 00:13:28;;;;;;;9.57;4.40;;;27.80;99.90;;;;;;5100133;28;20309;-76
2023/03/18 00:15:59;;;;;;;8.60;4.55;;;27.90;99.90;;;;;;5103412;28;20299;-77
2023/03/18 00:18:31;;;;;;;8.65;4.32;;;28.00;99.90;;;;;;5105737;28;20202;-76
2023/03/18 00:21:03;;;;;;;9.30;4.57;;;27.90;99.90;;;;;;5104343;28;20199;-76
2023/03/18 00:23:35;;;;;;;9.15;4.72;;;28.00;99.90;;;;;;5105714;28;20278;-77
2023/03/18 00:26:08;;;;;;;9.27;4.40;;;28.00;99.90;;;;;;5102643;28;20214;-76
2023/03/18 00:28:40;;;;;;;12.05;4.57;;;28.00;99.90;;;;;;5104946;28;20195;-76
2023/03/18 00:31:12;;;;;;;10.20;4.75;;;28.10;99.90;;;;;;5099451;28;20211;-76
2023/03/18 00:33:44;;;;;;;15.38;5.18;;;28.00;99.90;;;;;;5103657;28;20275;-77
2023/03/18 00:36:17;;;;;;;13.13;4.47;;;28.10;99.90;;;;;;5102752;28;20661;-76
2023/03/18 00:38:50;;;;;;;12.93;4.78;;;28.10;99.90;;;;;;5106565;28;20248;-76
2023/03/18 00:41:23;;;;;;;9.45;4.95;;;28.10;99.90;;;;;;5104256;28;20760;-76
2023/03/18 00:43:54;;;;;;;11.77;4.97;;;28.20;99.90;;;;;;5102810;28;20187;-76
2023/03/18 00:46:27;;;;;;;8.70;3.95;;;28.20;99.90;;;;;;5102435;28;20303;-77
2023/03/18 00:49:00;;;;;;;10.95;4.75;;;28.30;99.90;;;;;;5104356;28;20213;-77
2023/03/18 00:51:33;;;;;;;13.18;5.05;;;28.40;99.90;;;;;;5103108;28;20595;-76
2023/03/18 00:54:06;;;;;;;13.35;5.00;;;28.40;99.90;;;;;;5105694;28;20194;-78
2023/03/18 00:56:43;;;;;;;10.38;4.68;;;28.50;99.90;;;;;;5099484;28;20207;-77
2023/03/18 00:59:14;;;;;;;10.65;4.43;;;28.50;99.90;;;;;;5104242;28;20197;-77
2023/03/18 01:01:45;;;;;;;10.48;4.43;;;28.50;99.90;;;;;;5103467;28;20210;-77
2023/03/18 01:04:16;;;;;;;12.30;4.78;;;28.60;99.90;;;;;;5101696;28;20720;-77
2023/03/18 01:06:47;;;;;;;12.18;4.60;;;28.60;99.90;;;;;;5103952;28;20230;-77
2023/03/18 01:09:19;;;;;;;14.82;5.88;;;28.60;99.90;;;;;;5102031;28;20739;-78
2023/03/18 01:11:52;;;;;;;14.68;4.97;;;28.60;99.90;;;;;;5100224;28;20195;-77
2023/03/18 01:14:23;;;;;;;10.50;4.25;;;28.60;99.90;;;;;;5101926;28;20191;-77
2023/03/18 01:16:54;;;;;;;11.00;4.68;;;28.70;99.90;;;;;;5107639;28;20638;-77
2023/03/18 01:19:26;;;;;;;12.30;5.22;;;28.70;99.90;;;;;;5104072;28;20212;-77
2023/03/18 01:21:57;;;;;;;12.27;4.60;;;28.70;99.90;;;;;;5102464;28;20191;-83
2023/03/18 01:24:28;;;;;;;10.07;4.53;;;28.70;99.90;;;;;;5103317;28;21086;-77
2023/03/18 01:27:01;;;;;;;14.02;5.50;;;28.70;99.90;;;;;;5097032;28;20688;-77
2023/03/18 01:29:32;;;;;;;11.75;5.30;;;28.80;99.90;;;;;;5102335;28;20693;-78
2023/03/18 01:32:03;;;;;;;12.75;5.95;;;28.80;99.90;;;;;;5104256;28;20562;-78
2023/03/18 01:34:35;;;;;;;13.55;5.82;;;28.80;99.90;;;;;;5101296;28;20211;-78
2023/03/18 01:37:06;;;;;;;15.98;6.07;;;28.80;99.90;;;;;;5103504;28;20199;-78
2023/03/18 01:39:38;;;;;;;10.10;5.10;;;28.80;99.90;;;;;;5103585;28;20198;-78
2023/03/18 01:42:11;;;;;;;11.02;5.00;;;28.80;99.90;;;;;;5101398;28;20282;-78
2023/03/18 01:44:42;;;;;;;11.18;5.40;;;28.90;99.90;;;;;;5106479;28;20206;-77
2023/03/18 01:47:15;;;;;;;12.38;5.82;;;28.90;99.90;;;;;;5105212;28;20226;-78
2023/03/18 01:49:51;;;;;;;11.93;5.63;;;29.00;99.90;;;;;;5108418;28;20744;-77
2023/03/18 01:52:24;;;;;;;12.90;6.10;;;29.10;99.90;;;;;;5112181;28;20255;-78
2023/03/18 01:55:00;;;;;;;11.00;5.47;;;29.00;99.90;;;;;;5107441;28;20197;-77
2023/03/18 01:57:33;;;;;;;11.70;5.40;;;29.00;99.90;;;;;;5106503;28;20202;-77
2023/03/18 02:00:06;;;;;;;11.73;5.60;;;29.10;99.90;;;;;;5104946;28;20198;-79
2023/03/18 02:02:37;;;;;;;10.57;5.78;;;29.10;99.90;;;;;;5108212;27;20198;-80
2023/03/18 02:05:11;;;;;;;8.82;5.25;;;29.10;99.90;;;;;;5102677;28;20191;-79
2023/03/18 02:07:45;;;;;;;12.82;6.05;;;29.10;99.90;;;;;;5104741;28;20190;-78
2023/03/18 02:10:20;;;;;;;13.18;6.53;;;29.20;99.90;;;;;;5104780;28;20252;-79
2023/03/18 02:12:57;;;;;;;9.80;6.00;;;29.30;99.90;;;;;;5101524;28;22486;-78
2023/03/18 02:15:29;;;;;;;8.02;5.32;;;29.40;99.90;;;;;;5105818;28;20203;-78
2023/03/18 02:18:07;;;;;;;12.75;6.07;;;29.40;99.90;;;;;;5106350;28;20195;-79
2023/03/18 02:21:10;;;;;;;9.45;5.40;;;29.40;99.90;;;;;;5108245;28;20230;-79
2023/03/18 02:23:49;;;;;;;10.52;5.82;;;29.50;99.90;;;;;;5107777;28;20210;-79
2023/03/18 02:26:31;;;;;;;10.68;5.38;;;29.50;99.90;;;;;;5107282;28;20222;-78
2023/03/18 02:29:06;;;;;;;6.78;5.25;;;29.60;99.90;;;;;;5107102;28;20300;-79
2023/03/18 02:31:41;;;;;;;9.20;4.85;;;29.70;99.90;;;;;;5104458;28;20657;-78
2023/03/18 02:34:13;;;;;;;8.05;5.03;;;29.70;99.90;;;;;;5102727;28;20291;-78
2023/03/18 02:36:44;;;;;;;9.55;5.25;;;29.80;99.90;;;;;;5106042;28;20194;-79
2023/03/18 02:39:17;;;;;;;8.90;4.57;;;29.80;99.90;;;;;;5103513;28;20281;-79
2023/03/18 02:41:48;;;;;;;8.80;4.50;;;30.00;99.90;;;;;;5106775;28;20203;-78
2023/03/18 02:44:22;;;;;;;9.18;4.90;;;30.00;99.90;;;;;;5102968;28;20191;-79
2023/03/18 02:46:57;;;;;;;8.50;4.63;;;30.10;99.90;;;;;;5108882;28;20266;-80
2023/03/18 02:49:31;;;;;;;9.60;5.00;;;30.10;99.90;;;;;;5103535;28;20632;-78
2023/03/18 02:52:02;;;;;;;11.32;4.85;;;30.10;99.90;;;;;;5107640;28;20278;-79
2023/03/18 02:54:34;;;;;;;12.07;5.40;;;30.10;99.90;;;;;;5105967;27;20203;-81
2023/03/18 02:57:05;;;;;;;10.82;5.43;;;30.10;99.90;;;;;;5103629;28;20206;-78
2023/03/18 02:59:38;;;;;;;11.38;5.05;;;30.20;99.90;;;;;;5105594;28;20222;-79
2023/03/18 03:02:10;;;;;;;13.02;5.45;;;30.20;99.90;;;;;;5105416;28;20191;-82
2023/03/18 03:04:42;;;;;;;9.02;4.72;;;30.20;99.90;;;;;;5106948;28;20194;-80
2023/03/18 03:07:13;;;;;;;12.15;4.85;;;30.20;99.90;;;;;;5109058;28;20226;-79
2023/03/18 03:09:44;;;;;;;11.82;5.05;;;30.20;99.90;;;;;;5109020;28;20191;-79
2023/03/18 03:12:16;;;;;;;12.95;4.85;;;30.30;99.90;;;;;;5114148;28;20198;-79
2023/03/18 03:14:49;;;;;;;8.50;4.63;;;30.40;99.90;;;;;;5105752;28;20187;-79
2023/03/18 03:17:20;;;;;;;9.23;4.53;;;30.40;99.90;;;;;;5108579;28;20199;-79
2023/03/18 03:19:51;;;;;;;12.18;4.72;;;30.40;99.90;;;;;;5107141;28;20199;-80
2023/03/18 03:22:22;;;;;;;10.30;4.47;;;30.40;99.90;;;;;;5107247;28;20202;-80
2023/03/18 03:24:53;;;;;;;11.02;4.47;;;30.40;99.90;;;;;;5106868;28;20289;-79
2023/03/18 03:27:25;;;;;;;8.98;4.88;;;30.50;99.90;;;;;;5107557;28;20229;-81
2023/03/18 03:29:58;;;;;;;9.82;4.80;;;30.50;99.90;;;;;;5107980;28;20237;-79
2023/03/18 03:32:33;;;;;;;8.60;5.05;;;30.60;99.90;;;;;;5110630;28;20195;-80
2023/03/18 03:35:06;;;;;;;9.95;5.10;;;30.50;99.90;;;;;;5110949;28;20755;-80
2023/03/18 03:37:40;;;;;;;12.85;4.68;;;30.50;99.90;;;;;;5111411;28;20287;-79
2023/03/18 03:40:13;;;;;;;10.52;4.20;;;30.50;99.90;;;;;;5113539;28;20660;-80
2023/03/18 03:42:47;;;;;;;10.50;4.68;;;30.50;99.90;;;;;;5110331;28;20198;-80
2023/03/18 03:45:23;;;;;;;11.88;4.50;;;30.50;99.90;;;;;;5107591;28;20910;-79
2023/03/18 03:47:55;;;;;;;11.75;4.50;;;30.40;99.90;;;;;;5113566;28;20228;-79
2023/03/18 03:50:27;;;;;;;7.95;4.32;;;30.40;99.90;;;;;;5112373;28;20202;-79
2023/03/18 03:53:01;;;;;;;9.20;3.97;;;30.40;99.90;;;;;;5109907;28;20191;-78
2023/03/18 03:55:33;;;;;;;9.20;3.95;;;30.40;99.90;;;;;;5109511;28;20194;-78
2023/03/18 03:58:04;;;;;;;14.75;4.13;;;30.50;99.90;;;;;;5103073;28;20232;-80
2023/03/18 04:00:37;;;;;;;9.45;4.30;;;30.50;99.90;;;;;;5108113;28;20198;-78
2023/03/18 04:03:08;;;;;;;7.47;4.43;;;30.50;99.90;;;;;;5106920;28;20296;-78
2023/03/18 04:05:40;;;;;;;7.95;4.43;;;30.50;99.90;;;;;;5103016;28;20206;-79
2023/03/18 04:08:11;;;;;;;6.13;3.67;;;30.50;99.90;;;;;;5104961;28;20213;-79
2023/03/18 04:10:42;;;;;;;7.10;4.10;;;30.50;99.90;;;;;;5110776;28;20203;-80
2023/03/18 04:13:16;;;;;;;6.88;3.75;;;30.50;99.90;;;;;;5109270;28;20202;-78
2023/03/18 04:15:49;;;;;;;10.38;3.58;;;30.50;99.90;;;;;;5106809;28;20186;-78
2023/03/18 04:18:24;;;;;;;8.30;3.90;;;30.50;99.90;;;;;;5102878;27;20198;-78
2023/03/18 04:20:56;;;;;;;9.85;3.90;;;30.40;99.90;;;;;;5105931;28;20682;-78
2023/03/18 04:23:27;;;;;;;8.18;4.25;;;30.30;99.90;;;;;;5109221;28;20273;-78
2023/03/18 04:25:58;;;;;;;6.00;3.50;;;30.20;99.90;;;;;;5108291;28;20190;-78
2023/03/18 04:28:29;;;;;;;8.77;3.97;;;30.20;99.90;;;;;;5108849;28;20254;-78
2023/03/18 04:31:02;;;;;;;12.55;4.22;;;30.10;99.90;;;;;;5105697;28;20222;-78
2023/03/18 04:33:35;;;;;;;9.55;3.97;;;30.10;99.90;;;;;;5102485;28;20202;-79
2023/03/18 04:36:07;;;;;;;10.88;3.75;;;30.10;99.90;;;;;;5105049;28;20657;-79
2023/03/18 04:38:38;;;;;;;8.13;3.75;;;30.10;99.90;;;;;;5102860;28;20222;-78
2023/03/18 04:41:09;;;;;;;7.57;4.05;;;30.10;99.90;;;;;;5103486;28;20222;-78
2023/03/18 04:43:41;;;;;;;10.73;3.90;;;30.00;99.90;;;;;;5106648;28;20205;-78
2023/03/18 04:46:14;;;;;;;10.57;3.80;;;30.00;99.90;;;;;;5103066;28;20229;-77
2023/03/18 04:48:45;;;;;;;8.48;3.85;;;30.00;99.90;;;;;;5098482;28;20196;-79
2023/03/18 04:51:17;;;;;;;9.45;3.83;;;29.90;99.90;;;;;;5103879;28;20186;-78
2023/03/18 04:53:48;;;;;;;9.20;3.85;;;29.90;99.90;;;;;;5104844;28;20473;-79
2023/03/18 04:56:19;;;;;;;11.10;4.00;;;29.90;99.90;;;;;;5101745;28;20206;-78
2023/03/18 04:58:50;;;;;;;11.13;3.88;;;29.90;99.90;;;;;;5105270;28;20191;-77
2023/03/18 05:01:24;;;;;;;7.75;3.80;;;29.90;99.90;;;;;;5101217;28;20199;-77
2023/03/18 05:03:58;;;;;;;10.80;4.00;;;29.80;99.90;;;;;;5106141;28;20221;-78
2023/03/18 05:06:30;;;;;;;13.02;4.47;;;29.80;99.90;;;;;;5104278;28;20600;-77
2023/03/18 05:09:04;;;;;;;15.00;4.57;;;29.80;99.90;;;;;;5103420;28;20199;-77
2023/03/18 05:11:35;;;;;;;14.90;4.70;;;29.80;99.90;;;;;;5103840;28;20190;-76
2023/03/18 05:14:06;;;;;;;12.00;4.20;;;29.80;99.90;;;;;;5102330;28;20206;-78
2023/03/18 05:16:39;;;;;;;11.90;4.63;;;29.80;99.90;;;;;;5104757;28;20319;-77
2023/03/18 05:19:10;;;;;;;13.73;4.45;;;29.70;99.90;;;;;;5104221;28;20201;-76
2023/03/18 05:21:42;;;;;;;9.90;3.97;;;29.70;99.90;;;;;;5107845;28;20202;-77
2023/03/18 05:24:13;;;;;;;11.93;4.38;;;29.70;99.90;;;;;;5107379;28;20206;-77
2023/03/18 05:26:45;;;;;;;10.52;4.55;;;29.70;99.90;;;;;;5109201;28;20729;-76
2023/03/18 05:29:16;;;;;;;14.95;4.25;;;29.70;99.90;;;;;;5107450;28;20712;-78
2023/03/18 05:31:49;;;;;;;13.43;4.03;;;29.70;99.90;;;;;;5108351;28;20194;-77
2023/03/18 05:34:20;;;;;;;14.52;4.13;;;29.70;99.90;;;;;;5104276;28;20580;-77
2023/03/18 05:36:51;;;;;;;12.82;4.00;;;29.70;99.90;;;;;;5109884;27;20191;-77
2023/03/18 05:39:24;;;;;;;13.40;4.07;;;29.70;99.90;;;;;;5106623;28;20228;-77
2023/03/18 05:41:55;;;;;;;15.45;4.28;;;29.80;99.90;;;;;;5107954;28;20199;-78
2023/03/18 05:44:27;;;;;;;12.52;4.20;;;29.70;99.90;;;;;;5107488;28;20272;-77
2023/03/18 05:47:00;;;;;;;14.07;4.22;;;29.70;99.90;;;;;;5103017;28;20226;-77
2023/03/18 05:49:31;;;;;;;12.75;4.30;;;29.70;99.90;;;;;;5106465;28;20199;-78
2023/03/18 05:52:02;;;;;;;12.55;4.13;;;29.70;99.90;;;;;;5105967;28;20202;-78
2023/03/18 05:54:36;;;;;;;12.35;4.10;;;29.60;99.90;;;;;;5108172;28;20205;-78
2023/03/18 05:57:07;;;;;;;16.55;4.25;;;29.70;99.90;;;;;;5107855;28;20576;-77
2023/03/18 05:59:39;;;;;;;14.23;3.90;;;29.70;99.90;;;;;;5106761;28;20190;-77
2023/03/18 06:02:12;;;;;;;15.10;4.45;;;29.90;99.90;;;;;;5108220;28;20191;-77
2023/03/18 06:04:43;;;;;;;16.65;3.92;;;30.00;99.90;;;;;;5106305;28;20194;-78
2023/03/18 06:07:14;;;;;;;11.98;4.10;;;30.10;99.90;;;;;;5107426;28;20230;-77
2023/03/18 06:09:45;;;;;;;15.02;4.05;;;30.10;99.90;;;;;;5106808;28;20259;-77
2023/03/18 06:12:16;;;;;;;14.30;4.30;;;30.10;99.90;;;;;;5109297;28;20194;-78
2023/03/18 06:14:47;;;;;;;12.00;3.90;;;30.10;99.90;;;;;;5105775;28;20280;-77
2023/03/18 06:17:21;;;;;;;17.90;4.32;;;30.30;99.90;;;;;;5107232;28;20671;-77
2023/03/18 06:19:52;;;;;;;17.17;4.22;;;30.20;99.90;;;;;;5106456;28;20662;-77
2023/03/18 06:22:23;;;;;;;18.13;3.85;;;30.50;99.90;;;;;;5105324;28;20222;-77
2023/03/18 06:24:54;;;;;;;11.82;3.83;;;30.40;99.90;;;;;;5108136;28;20568;-78
2023/03/18 06:27:25;;;;;;;14.35;4.18;;;30.70;99.90;;;;;;5107985;28;20696;-78
2023/03/18 06:29:56;;;;;;;12.65;3.97;;;31.00;99.90;;;;;;5107514;28;20735;-77
2023/03/18 06:32:29;;;;;;;13.10;3.90;;;31.20;99.90;;;;;;5104864;28;20672;-78
2023/03/18 06:35:04;;;;;;;17.05;4.85;;;31.50;99.90;;;;;;5105213;28;20291;-77
2023/03/18 06:37:35;;;;;;;15.35;4.00;;;31.60;99.90;;;;;;5106008;28;20210;-77
2023/03/18 06:40:07;;;;;;;15.35;4.05;;;31.90;99.90;;;;;;5105022;28;21189;-77
2023/03/18 06:42:38;;;;;;;13.30;3.75;;;32.20;99.90;;;;;;5108779;28;20203;-77
2023/03/18 06:45:10;;;;;;;12.05;3.65;;;32.50;99.90;;;;;;5106846;28;20203;-78
2023/03/18 06:47:43;;;;;;;16.17;4.57;;;32.80;99.90;;;;;;5107252;28;21364;-78
2023/03/18 06:50:14;;;;;;;11.07;3.78;;;32.70;99.90;;;;;;5102905;28;20565;-78
2023/03/18 06:52:45;;;;;;;12.23;3.83;;;32.80;99.90;;;;;;5109121;28;20195;-78
2023/03/18 06:55:17;;;;;;;12.63;3.67;;;32.90;99.90;;;;;;5106734;28;20245;-76
2023/03/18 06:57:48;;;;;;;14.07;4.20;;;33.10;99.90;;;;;;5106443;28;20679;-77
2023/03/18 07:00:20;;;;;;;14.02;4.20;;;33.10;99.90;;;;;;5106643;28;20198;-76
2023/03/18 07:02:53;;;;;;;13.82;3.70;;;33.00;99.90;;;;;;5106385;28;20226;-77
2023/03/18 07:05:25;;;;;;;11.10;3.53;;;33.10;99.90;;;;;;5104761;28;20206;-77
2023/03/18 07:07:56;;;;;;;16.13;4.47;;;32.90;99.90;;;;;;5106848;28;20309;-77
2023/03/18 07:10:29;;;;;;;14.63;4.25;;;32.80;99.90;;;;;;5104610;28;20195;-77
2023/03/18 07:13:03;;;;;;;13.38;3.63;;;32.70;99.90;;;;;;5107180;28;20195;-77
2023/03/18 07:15:34;;;;;;;14.15;3.90;;;32.60;99.90;;;;;;5104216;28;20198;-78
2023/03/18 07:18:08;;;;;;;14.95;3.80;;;32.20;99.90;;;;;;5107911;28;20289;-77
2023/03/18 07:20:40;;;;;;;12.70;3.80;;;31.80;99.90;;;;;;5105732;28;20195;-78
2023/03/18 07:23:11;;;;;;;13.05;3.80;;;31.50;99.90;;;;;;5104556;28;20210;-77
2023/03/18 07:25:43;;;;;;;14.73;3.90;;;31.10;99.90;;;;;;5103507;28;20673;-77
2023/03/18 07:28:14;;;;;;;17.50;4.10;;;30.80;99.90;;;;;;5107881;28;20615;-76
2023/03/18 07:30:45;;;;;;;16.75;4.00;;;30.50;99.90;;;;;;5105001;28;20227;-77
2023/03/18 07:33:18;;;;;;;14.93;4.13;;;30.20;99.90;;;;;;5104369;28;20576;-77
2023/03/18 07:35:50;;;;;;;15.35;4.20;;;30.00;99.90;;;;;;5105242;28;20296;-78
2023/03/18 07:38:22;;;;;;;13.43;3.92;;;29.70;99.90;;;;;;5103720;28;20653;-77
2023/03/18 07:40:53;;;;;;;17.45;4.13;;;29.40;99.90;;;;;;5105794;28;20191;-78
2023/03/18 07:43:24;;;;;;;15.57;3.97;;;29.10;99.90;;;;;;5106130;28;20668;-77
2023/03/18 07:45:55;;;;;;;14.60;3.92;;;29.00;99.90;;;;;;5102581;28;20866;-77
2023/03/18 07:48:29;;;;;;;20.83;4.32;;;28.80;99.90;;;;;;5106110;28;20331;-78
2023/03/18 07:51:00;;;;;;;16.65;4.25;;;28.40;99.90;;;;;;5105232;28;20214;-77
2023/03/18 07:53:32;;;;;;;17.63;4.60;;;28.30;99.90;;;;;;5106287;28;20251;-77
2023/03/18 07:56:03;;;;;;;16.05;3.97;;;28.20;99.90;;;;;;5105384;28;20564;-77
2023/03/18 07:58:34;;;;;;;18.90;4.28;;;28.10;99.90;;;;;;5106773;28;20210;-77
2023/03/18 08:01:06;;;;;;;19.33;4.50;;;28.00;99.90;;;;;;5105236;28;20683;-77
2023/03/18 08:03:39;;;;;;;16.13;3.95;;;27.90;99.90;;;;;;5106714;28;20234;-77
2023/03/18 08:06:11;;;;;;;20.33;5.15;;;27.70;99.90;;;;;;5103190;28;20198;-77
2023/03/18 08:08:42;;;;;;;19.15;4.53;;;27.70;99.90;;;;;;5106030;28;20643;-77
2023/03/18 08:11:14;;;;;;;16.85;4.32;;;27.60;99.90;;;;;;5104125;28;20664;-78
2023/03/18 08:13:45;;;;;;;19.67;4.38;;;27.60;99.90;;;;;;5101505;28;20319;-78
2023/03/18 08:16:17;;;;;;;13.20;3.60;;;27.50;99.90;;;;;;5105350;28;20201;-77
2023/03/18 08:18:50;;;;;;;15.18;4.47;;;27.50;99.90;;;;;;5105400;28;20194;-78
2023/03/18 08:21:21;;;;;;;21.50;4.40;;;27.40;99.90;;;;;;5104996;28;20463;-77
2023/03/18 08:23:53;;;;;;;16.95;4.38;;;27.30;99.90;;;;;;5103266;28;20205;-77
2023/03/18 08:26:24;;;;;;;16.52;3.92;;;27.30;99.90;;;;;;5103756;28;20206;-78
2023/03/18 08:28:56;;;;;;;18.58;4.57;;;27.30;99.90;;;;;;5106927;28;20581;-78
2023/03/18 08:31:31;;;;;;;17.88;4.18;;;27.30;99.90;;;;;;5106357;28;20281;-78
2023/03/18 08:34:04;;;;;;;16.10;4.20;;;27.20;99.90;;;;;;5105134;28;20692;-77
2023/03/18 08:36:36;;;;;;;20.10;4.70;;;27.20;99.90;;;;;;5106285;28;20209;-78
2023/03/18 08:39:08;;;;;;;15.75;4.22;;;27.20;99.90;;;;;;5104237;28;20210;-77
2023/03/18 08:41:39;;;;;;;18.15;4.28;;;27.20;99.90;;;;;;5104342;28;20303;-79
2023/03/18 08:44:11;;;;;;;14.85;4.47;;;27.20;99.90;;;;;;5100483;28;20249;-78
2023/03/18 08:46:42;;;;;;;13.93;4.35;;;27.20;99.90;;;;;;5103792;28;20201;-78
2023/03/18 08:49:15;;;;;;;20.73;4.63;;;27.10;99.90;;;;;;5103838;28;20218;-78
2023/03/18 08:51:46;;;;;;;17.75;4.10;;;27.10;99.90;;;;;;5103841;28;20217;-78
2023/03/18 08:54:20;;;;;;;20.98;4.95;;;27.10;99.90;;;;;;5103590;28;20201;-79
2023/03/18 08:56:51;;;;;;;24.85;5.22;;;27.10;99.90;;;;;;5103947;28;20198;-78
2023/03/18 08:59:22;;;;;;;17.63;4.40;;;27.00;99.90;;;;;;5104869;28;20603;-78
2023/03/18 09:01:53;;;;;;;20.08;4.55;;;26.90;99.90;;;;;;5105165;28;20214;-79
2023/03/18 09:04:26;;;;;;;14.73;3.80;;;26.90;99.90;;;;;;5105459;28;20210;-79
2023/03/18 09:06:59;;;;;;;17.85;4.47;;;26.90;99.90;;;;;;5110088;28;20206;-79
2023/03/18 09:09:30;;;;;;;16.83;3.85;;;26.90;99.90;;;;;;5104491;28;20254;-79
2023/03/18 09:12:03;;;;;;;15.20;3.90;;;26.80;99.90;;;;;;5098358;28;20190;-78
2023/03/18 09:14:35;;;;;;;18.45;4.38;;;26.80;99.90;;;;;;5103724;28;20567;-78
2023/03/18 09:17:06;;;;;;;15.45;3.92;;;26.80;99.90;;;;;;5103858;28;20254;-77
2023/03/18 09:19:39;;;;;;;18.98;4.18;;;26.80;99.90;;;;;;5101972;28;20209;-78
2023/03/18 09:22:10;;;;;;;16.15;4.13;;;26.70;99.90;;;;;;5104630;28;20195;-78
2023/03/18 09:24:41;;;;;;;22.23;4.68;;;26.80;99.90;;;;;;5102008;28;20243;-79
2023/03/18 09:27:13;;;;;;;19.40;4.05;;;26.70;99.90;;;;;;5102401;28;20194;-77
2023/03/18 09:29:44;;;;;;;18.35;4.35;;;26.80;99.90;;;;;;5096078;28;20296;-78
2023/03/18 09:32:17;;;;;;;16.98;4.55;;;26.70;99.90;;;;;;5110516;28;20194;-77
2023/03/18 09:35:04;;;;;;;17.23;4.40;;;26.70;99.90;;;;;;5111756;28;20191;-77
2023/03/18 09:37:49;;;;;;;17.45;3.90;;;26.70;99.90;;;;;;5120084;28;20206;-80
2023/03/18 09:40:51;;;;;;;17.13;4.20;;;26.60;99.90;;;;;;5108327;28;20179;-79
2023/03/18 09:43:45;;;;;;;18.13;4.30;;;26.60;99.90;;;;;;5118371;28;20871;-78
2023/03/18 09:49:42;;;;;;;19.40;4.22;;;26.70;99.90;;;;;;5117458;28;20221;-77
2023/03/18 09:52:26;;;;;;;14.10;4.03;;;26.70;99.90;;;;;;5111285;28;20203;-78
2023/03/18 09:55:07;;;;;;;16.55;4.00;;;26.60;99.90;;;;;;5115351;28;20653;-77
2023/03/18 09:58:02;;;;;;;21.45;4.97;;;26.70;99.90;;;;;;5109057;28;20202;-80
2023/03/18 10:00:43;;;;;;;16.92;4.03;;;26.70;99.90;;;;;;5116223;28;20191;-79
2023/03/18 10:03:29;;;;;;;16.70;4.35;;;26.60;99.90;;;;;;5112685;28;20199;-79
2023/03/18 10:06:10;;;;;;;21.27;4.60;;;26.60;99.90;;;;;;5113727;28;20177;-78
2023/03/18 10:09:00;;;;;;;17.65;4.22;;;26.60;99.90;;;;;;5108853;28;20273;-79
2023/03/18 10:11:39;;;;;;;18.70;3.97;;;26.60;99.90;;;;;;5116353;28;20213;-79
2023/03/18 10:14:42;;;;;;;17.63;4.13;;;26.60;99.90;;;;;;5113296;28;20198;-78
2023/03/18 10:17:25;;;;;;;21.00;4.57;;;26.50;99.90;;;;;;5117374;28;20182;-78
2023/03/18 10:20:20;;;;;;;23.75;4.47;;;26.50;99.90;;;;;;5113454;28;20245;-78
2023/03/18 10:23:12;;;;;;;18.40;4.72;;;26.50;99.90;;;;;;5117024;28;20657;-79
2023/03/18 10:29:16;;;;;;;18.20;4.55;;;26.50;99.90;;;;;;5119164;28;20317;-78
2023/03/18 10:32:06;;;;;;;17.60;4.53;;;26.50;99.90;;;;;;5115508;28;20202;-77
2023/03/18 10:34:53;;;;;;;19.10;4.60;;;26.50;99.90;;;;;;5114007;28;20254;-78
2023/03/18 10:37:38;;;;;;;16.08;3.97;;;26.40;99.90;;;;;;5112088;28;20732;-79
2023/03/18 10:40:23;;;;;;;21.48;4.60;;;26.50;99.90;;;;;;5118567;28;20339;-79
2023/03/18 10:42:57;;;;;;;16.92;4.22;;;26.40;99.90;;;;;;5122813;28;20202;-78
2023/03/18 10:45:43;;;;;;;16.55;4.22;;;26.50;99.90;;;;;;5110049;28;20199;-78
2023/03/18 10:48:38;;;;;;;20.33;4.40;;;26.40;99.90;;;;;;5118806;28;20338;-79
2023/03/18 10:51:30;;;;;;;17.40;4.50;;;26.40;99.90;;;;;;5113311;28;20214;-79
2023/03/18 10:54:14;;;;;;;22.60;4.88;;;26.40;99.90;;;;;;5120495;28;20202;-76
2023/03/18 10:56:52;;;;;;;19.48;4.70;;;26.40;99.90;;;;;;5116070;28;20216;-77
2023/03/18 10:59:31;;;;;;;19.30;4.53;;;26.40;99.90;;;;;;5116444;28;20202;-78
2023/03/18 11:02:07;;;;;;;19.42;4.15;;;26.30;99.90;;;;;;5107207;28;20197;-77
2023/03/18 11:04:47;;;;;;;18.10;4.30;;;26.30;99.90;;;;;;5105282;28;20210;-78
2023/03/18 11:07:22;;;;;;;18.83;4.50;;;26.40;99.90;;;;;;5104305;28;20279;-78
2023/03/18 11:09:53;;;;;;;16.73;4.25;;;26.40;99.90;;;;;;5104698;28;20243;-78
2023/03/18 11:12:28;;;;;;;16.55;4.28;;;26.40;99.90;;;;;;5104241;28;20202;-78
2023/03/18 11:15:01;;;;;;;16.67;4.13;;;26.30;99.90;;;;;;5108118;28;20276;-77
2023/03/18 11:17:35;;;;;;;20.17;3.97;;;26.30;99.90;;;;;;5100496;28;20198;-79
2023/03/18 11:20:23;;;;;;;19.00;3.97;;;26.30;99.90;;;;;;5100905;28;20194;-78
2023/03/18 11:22:56;;;;;;;17.20;3.83;;;26.30;99.90;;;;;;5106523;28;20572;-78
2023/03/18 11:25:28;;;;;;;17.92;4.28;;;26.30;99.90;;;;;;5100324;28;20230;-78
2023/03/18 11:28:04;;;;;;;16.17;4.07;;;26.30;99.90;;;;;;5098154;28;20195;-77
2023/03/18 11:30:51;;;;;;;19.15;4.68;;;26.30;99.90;;;;;;5100803;28;20675;-77
2023/03/18 11:33:27;;;;;;;15.93;4.25;;;26.30;99.90;;;;;;5108617;28;20232;-79
2023/03/18 11:36:06;;;;;;;15.07;4.15;;;26.30;99.90;;;;;;5108993;28;20190;-79
2023/03/18 11:38:41;;;;;;;14.75;4.35;;;26.30;99.90;;;;;;5104106;28;20210;-78
2023/03/18 11:41:16;;;;;;;15.73;4.28;;;26.30;99.90;;;;;;5105904;28;20288;-78
2023/03/18 11:43:59;;;;;;;18.13;4.53;;;26.20;99.90;;;;;;5102860;28;20225;-78
2023/03/18 11:46:38;;;;;;;15.73;3.72;;;26.30;99.90;;;;;;5110890;28;20202;-78
2023/03/18 11:49:14;;;;;;;15.20;3.92;;;26.20;99.90;;;;;;5107623;28;20222;-78
2023/03/18 11:51:50;;;;;;;15.93;3.95;;;26.20;99.90;;;;;;5105483;28;20193;-78
2023/03/18 11:54:47;;;;;;;18.42;4.93;;;26.20;99.90;;;;;;5106989;27;20703;-78
2023/03/18 11:57:24;;;;;;;18.15;4.20;;;26.20;99.90;;;;;;5099210;28;20611;-78
2023/03/18 12:00:10;;;;;;;14.77;4.28;;;26.20;99.90;;;;;;5105945;27;20205;-79
2023/03/18 12:03:02;;;;;;;13.85;3.72;;;26.20;99.90;;;;;;5104147;28;20205;-79
2023/03/18 12:06:08;;;;;;;16.73;4.03;;;26.20;99.90;;;;;;5102311;28;20210;-78
2023/03/18 12:08:51;;;;;;;18.42;4.05;;;26.10;99.90;;;;;;5065092;28;20238;-78
2023/03/18 12:11:32;;;;;;;17.63;4.05;;;26.10;99.90;;;;;;5104447;28;20207;-79
2023/03/18 12:14:14;;;;;;;16.95;4.10;;;26.10;99.90;;;;;;5107392;28;20199;-78
2023/03/18 12:16:58;;;;;;;17.30;4.13;;;26.10;99.90;;;;;;5105136;28;20210;-79
2023/03/18 12:19:54;;;;;;;17.90;4.45;;;26.10;99.90;;;;;;5102345;28;20260;-78
2023/03/18 12:22:47;;;;;;;18.45;4.32;;;26.10;99.90;;;;;;5102672;28;20222;-78
2023/03/18 12:25:30;;;;;;;16.77;3.75;;;26.10;99.90;;;;;;5102183;28;20217;-79
2023/03/18 12:28:05;;;;;;;16.45;4.22;;;26.10;99.90;;;;;;5103728;28;20194;-79
2023/03/18 12:31:00;;;;;;;13.52;3.90;;;26.10;99.90;;;;;;5103873;28;20909;-79
2023/03/18 12:33:45;;;;;;;17.35;4.13;;;26.00;99.90;;;;;;5104690;28;20202;-78
2023/03/18 12:36:26;;;;;;;15.60;3.90;;;26.00;99.90;;;;;;5101663;28;20736;-78
2023/03/18 12:39:44;;;;;;;19.25;4.65;;;26.00;99.90;;;;;;5104919;28;20198;-79
2023/03/18 12:42:21;;;;;;;13.20;3.58;;;26.00;99.90;;;;;;5041694;28;20212;-78
2023/03/18 12:45:01;;;;;;;16.35;3.67;;;26.00;99.90;;;;;;5096230;28;20195;-78
2023/03/18 12:47:37;;;;;;;13.65;3.80;;;26.00;99.90;;;;;;5102742;28;20224;-78
2023/03/18 12:50:16;;;;;;;18.70;4.10;;;25.90;99.90;;;;;;5105016;28;20222;-79
2023/03/18 12:52:53;;;;;;;17.27;3.92;;;25.90;99.90;;;;;;5103347;28;20280;-78
2023/03/18 12:55:28;;;;;;;19.90;4.50;;;25.90;99.90;;;;;;5091172;22;20255;-78
2023/03/18 12:58:02;;;;;;;15.13;3.97;;;25.90;99.90;;;;;;5042133;28;20199;-79
2023/03/18 13:00:36;;;;;;;12.90;4.20;;;25.90;99.90;;;;;;5032793;28;20298;-79
2023/03/18 13:03:20;;;;;;;11.32;3.72;;;25.90;99.90;;;;;;5035744;28;20201;-78
2023/03/18 13:05:55;;;;;;;16.92;4.13;;;25.90;99.90;;;;;;5033478;28;20201;-78
2023/03/18 13:08:59;;;;;;;13.82;3.78;;;25.90;99.90;;;;;;5033532;28;20211;-78
2023/03/18 13:11:50;;;;;;;13.95;3.65;;;25.90;99.90;;;;;;5038283;28;20200;-79
2023/03/18 13:14:29;;;;;;;13.75;4.03;;;25.80;99.90;;;;;;5034489;28;20201;-78
2023/03/18 13:17:01;;;;;;;16.85;4.43;;;25.80;99.90;;;;;;5039071;28;20204;-76
2023/03/18 13:19:34;;;;;;;14.10;3.63;;;25.80;99.90;;;;;;5035054;28;20213;-76
2023/03/18 13:22:17;;;;;;;14.10;4.03;;;25.80;99.90;;;;;;5033887;28;20204;-78
2023/03/18 13:25:07;;;;;;;12.02;3.85;;;25.70;99.90;;;;;;5034861;28;20222;-78